Time;durP1;ratioP1;P1;durP2;ratioP2;P2;SDS_P1;SDS_P2;PMS_P1;PMS_P2;Temp;Humidity;BMP_temperature;BMP_pressure;BME280_temperature;BME280_humidity;BME280_pressure;Samples;Min_cycle;Max_cycle;Signal;HPM_P1;HPM_P2
2022/09/13 00:02:46;;;;;;;18.00;9.70;;;;;;;9.38;97.72;100217.06;656622;1278;138972;-89
2022/09/13 00:17:49;;;;;;;16.80;8.70;;;;;;;9.13;98.13;100222.81;655967;1277;139766;-89
2022/09/13 00:32:52;;;;;;;12.50;7.20;;;;;;;8.96;98.63;100211.52;657391;1277;139004;-89
2022/09/13 00:48:00;;;;;;;13.00;8.60;;;;;;;8.82;99.37;100197.82;656661;1277;139060;-88
2022/09/13 01:03:08;;;;;;;12.20;7.10;;;;;;;8.71;99.18;100184.43;656520;1277;138906;-89
2022/09/13 01:18:12;;;;;;;22.20;11.50;;;;;;;8.66;99.89;100180.07;657576;1277;139241;-87
2022/09/13 01:33:37;;;;;;;13.80;8.10;;;;;;;8.64;98.91;100183.72;656625;1277;139005;-88
2022/09/13 01:48:50;;;;;;;11.00;7.40;;;;;;;8.48;99.21;100169.84;656244;1278;138849;-88
2022/09/13 02:03:59;;;;;;;16.50;8.90;;;;;;;8.47;98.70;100150.27;657521;1277;141546;-88
2022/09/13 02:19:09;;;;;;;13.30;7.50;;;;;;;8.32;98.60;100148.80;656496;1277;139207;-90
2022/09/13 02:34:37;;;;;;;16.50;10.50;;;;;;;8.18;98.98;100138.94;656466;1280;139265;-88
2022/09/13 02:49:54;;;;;;;15.70;10.80;;;;;;;7.83;99.85;100124.52;656732;1278;139013;-88
2022/09/13 03:04:59;;;;;;;11.70;7.90;;;;;;;7.76;100.00;100110.95;656794;1277;139652;-87
2022/09/13 03:20:08;;;;;;;12.00;6.90;;;;;;;7.83;98.95;100101.33;656053;1277;139948;-88
2022/09/13 03:35:25;;;;;;;7.40;5.50;;;;;;;7.81;98.20;100090.15;656489;1280;139289;-89
2022/09/13 03:50:28;;;;;;;12.20;8.10;;;;;;;7.67;98.82;100083.05;656258;1277;140176;-88
2022/09/13 04:05:33;;;;;;;9.40;7.00;;;;;;;7.58;98.13;100068.49;657718;1278;138801;-87
2022/09/13 04:20:36;;;;;;;13.90;6.70;;;;;;;7.41;97.74;100048.23;656976;1279;139143;-87
2022/09/13 04:35:40;;;;;;;16.70;7.30;;;;;;;7.42;98.06;100029.01;658642;1278;1620356;-88
2022/09/13 04:50:43;;;;;;;24.10;12.90;;;;;;;7.47;98.10;100015.38;658247;1278;139502;-88
2022/09/13 05:05:46;;;;;;;19.80;10.90;;;;;;;7.50;98.52;100006.79;658247;1277;139060;-88
2022/09/13 05:20:53;;;;;;;19.40;11.50;;;;;;;7.68;98.29;100001.73;656930;1277;139363;-87
2022/09/13 05:35:57;;;;;;;21.90;10.80;;;;;;;8.14;99.45;100005.32;656563;1277;140471;-88
2022/09/13 05:51:14;;;;;;;19.10;9.70;;;;;;;8.92;99.74;99993.10;658473;1278;140227;-89
2022/09/13 06:06:18;;;;;;;15.80;10.70;;;;;;;9.69;99.99;99975.10;656690;1278;139736;-89
2022/09/13 06:21:22;;;;;;;18.80;9.70;;;;;;;10.48;100.00;99966.39;656697;1280;139602;-87
2022/09/13 06:36:30;;;;;;;29.70;12.20;;;;;;;11.49;100.00;99959.16;656564;1278;139688;-91
2022/09/13 06:51:35;;;;;;;17.60;9.40;;;;;;;12.58;100.00;99959.61;657447;1278;141637;-90
2022/09/13 07:06:40;;;;;;;7.30;5.10;;;;;;;13.72;100.00;99970.76;657408;1278;139138;-89
2022/09/13 07:21:44;;;;;;;7.10;4.30;;;;;;;15.08;100.00;99971.30;657390;1278;139378;-90
2022/09/13 07:36:48;;;;;;;7.00;4.20;;;;;;;15.96;99.28;99981.14;658039;1278;139357;-90
2022/09/13 07:51:52;;;;;;;6.30;4.00;;;;;;;16.85;96.27;99969.82;662933;1277;138795;-90
2022/09/13 08:06:55;;;;;;;6.20;4.20;;;;;;;17.29;91.05;99954.92;658350;1279;140673;-90
2022/09/13 08:21:58;;;;;;;7.90;4.40;;;;;;;17.27;89.45;99939.27;656819;1280;139194;-89
2022/09/13 08:37:02;;;;;;;8.00;4.10;;;;;;;17.27;88.69;99920.83;656909;1280;138813;-89
2022/09/13 08:52:14;;;;;;;6.70;3.90;;;;;;;17.55;87.26;99906.66;656374;1278;139265;-90
2022/09/13 09:07:22;;;;;;;7.60;3.80;;;;;;;17.68;85.89;99885.45;656996;1279;138958;-91
2022/09/13 09:22:33;;;;;;;5.50;4.10;;;;;;;18.18;84.43;99879.20;658244;1279;139095;-89
2022/09/13 09:37:40;;;;;;;5.30;4.40;;;;;;;18.89;82.30;99868.09;657879;1278;139237;-90
2022/09/13 09:53:02;;;;;;;6.90;3.90;;;;;;;19.84;78.87;99856.09;656737;1279;138858;-89
2022/09/13 10:08:07;;;;;;;8.10;4.80;;;;;;;19.87;77.89;99833.43;656918;1277;139373;-88
2022/09/13 10:23:13;;;;;;;7.70;4.80;;;;;;;19.85;78.43;99813.23;657925;1278;139757;-88
2022/09/13 10:38:27;;;;;;;6.20;4.20;;;;;;;19.61;79.22;99798.88;656963;1280;139187;-89
2022/09/13 10:53:41;;;;;;;10.50;4.20;;;;;;;19.45;80.55;99787.00;657997;1278;139658;-88
2022/09/13 11:09:14;;;;;;;5.30;4.50;;;;;;;19.57;81.47;99768.76;658655;1279;140575;-87
2022/09/13 11:24:43;;;;;;;9.50;5.00;;;;;;;19.43;82.79;99722.39;661852;1279;139839;-86
2022/09/13 11:39:53;;;;;;;7.40;5.00;;;;;;;19.43;83.54;99696.45;658841;1280;139234;-87
2022/09/13 11:55:26;;;;;;;5.70;4.60;;;;;;;19.33;85.01;99696.55;659130;1279;139825;-88
2022/09/13 12:10:45;;;;;;;6.30;4.30;;;;;;;19.37;85.50;99672.23;659837;1280;138914;-87
2022/09/13 12:25:59;;;;;;;8.70;4.70;;;;;;;19.47;85.17;99658.22;660841;1278;140146;-84
2022/09/13 12:41:21;;;;;;;7.10;4.80;;;;;;;19.59;84.99;99644.02;660084;1277;140559;-80
2022/09/13 12:56:52;;;;;;;7.80;4.90;;;;;;;19.80;84.95;99636.10;664867;1277;139067;-83
2022/09/13 13:11:59;;;;;;;7.00;5.10;;;;;;;19.88;84.63;99616.45;661533;1277;139705;-81
2022/09/13 13:27:40;;;;;;;10.50;6.00;;;;;;;19.82;83.06;99590.45;657629;1277;139431;-83
2022/09/13 13:43:10;;;;;;;23.90;15.70;;;;;;;19.61;85.30;99575.48;657136;1277;139674;-82
2022/09/13 13:58:36;;;;;;;10.40;7.30;;;;;;;19.52;87.07;99567.20;655413;1280;140507;-82
2022/09/13 14:13:59;;;;;;;12.80;9.70;;;;;;;19.33;90.93;99545.56;657577;1281;139353;-82
2022/09/13 14:29:07;;;;;;;8.30;6.30;;;;;;;19.22;92.04;99519.30;656408;1278;139170;-82
2022/09/13 14:44:22;;;;;;;10.80;6.80;;;;;;;19.30;91.70;99492.71;656932;1280;140138;-82
2022/09/13 14:59:45;;;;;;;9.00;7.00;;;;;;;19.20;92.08;99481.88;656542;1278;138997;-82
2022/09/13 15:15:18;;;;;;;13.80;9.20;;;;;;;18.88;94.53;99466.63;657702;1277;140121;-82
2022/09/13 15:30:29;;;;;;;39.00;25.60;;;;;;;18.68;97.78;99457.70;660169;1277;140967;-83
2022/09/13 15:45:32;;;;;;;27.70;17.10;;;;;;;18.65;98.74;99450.52;659225;1277;140089;-81
2022/09/13 16:00:37;;;;;;;31.40;21.50;;;;;;;18.56;99.16;99437.80;661012;1278;141694;-82
2022/09/13 16:15:41;;;;;;;21.90;14.70;;;;;;;18.44;99.88;99421.27;659244;1278;140713;-82
2022/09/13 16:30:47;;;;;;;20.80;12.70;;;;;;;18.36;100.00;99409.33;661691;1277;140331;-82
2022/09/13 16:45:52;;;;;;;18.20;11.80;;;;;;;18.26;100.00;99404.45;663658;1280;1578188;-81
2022/09/13 17:00:56;;;;;;;27.80;19.70;;;;;;;18.14;100.00;99395.73;663586;1277;139772;-83
2022/09/13 17:16:00;;;;;;;14.30;11.50;;;;;;;18.04;100.00;99386.67;663797;1277;140308;-82
2022/09/13 17:31:05;;;;;;;32.30;25.40;;;;;;;17.94;100.00;99373.04;663471;1278;140069;-82
2022/09/13 17:46:20;;;;;;;20.60;15.20;;;;;;;17.89;100.00;99357.88;662094;1277;141669;-82
2022/09/13 18:01:25;;;;;;;15.00;11.50;;;;;;;17.95;100.00;99367.94;664940;1278;140849;-82
2022/09/13 18:16:30;;;;;;;16.10;10.70;;;;;;;18.01;100.00;99373.41;661051;1277;140841;-82
2022/09/13 18:31:35;;;;;;;27.60;15.50;;;;;;;18.01;100.00;99369.57;661574;1278;140641;-83
2022/09/13 18:46:41;;;;;;;21.10;15.80;;;;;;;17.96;100.00;99370.81;660495;1277;140211;-82
2022/09/13 19:01:47;;;;;;;27.20;20.00;;;;;;;17.92;100.00;99368.63;661620;1278;139924;-82
2022/09/13 19:16:55;;;;;;;22.00;14.90;;;;;;;17.70;100.00;99347.17;661007;1278;139901;-83
2022/09/13 19:31:59;;;;;;;18.70;12.70;;;;;;;17.44;100.00;99327.50;667615;1277;141422;-82
2022/09/13 19:47:06;;;;;;;28.80;19.00;;;;;;;17.36;100.00;99326.02;658002;1277;140038;-83
2022/09/13 20:02:29;;;;;;;40.50;23.90;;;;;;;17.24;100.00;99322.09;657891;1277;140454;-83
2022/09/13 20:17:34;;;;;;;27.80;17.80;;;;;;;17.09;100.00;99326.00;658453;1279;140443;-82
2022/09/13 20:32:39;;;;;;;28.60;18.40;;;;;;;16.98;100.00;99319.00;658429;1277;139540;-82
2022/09/13 20:47:45;;;;;;;30.60;19.20;;;;;;;16.77;100.00;99310.97;658081;1277;139481;-82
2022/09/13 21:02:50;;;;;;;25.00;16.80;;;;;;;16.48;100.00;99316.29;657654;1279;141093;-82
2022/09/13 21:17:54;;;;;;;21.00;15.80;;;;;;;16.20;100.00;99322.30;657937;1277;141131;-82
2022/09/13 21:32:57;;;;;;;23.30;14.90;;;;;;;16.01;100.00;99323.66;656798;1277;140015;-81
2022/09/13 21:48:01;;;;;;;20.20;14.00;;;;;;;15.92;100.00;99318.07;655965;1277;139724;-84
2022/09/13 22:03:07;;;;;;;24.90;15.90;;;;;;;15.84;100.00;99305.77;655736;1277;140458;-82
2022/09/13 22:18:11;;;;;;;25.50;17.90;;;;;;;15.78;100.00;99306.96;656245;1278;140713;-82
2022/09/13 22:33:14;;;;;;;21.40;14.40;;;;;;;15.74;100.00;99309.61;656486;1278;140166;-82
2022/09/13 22:48:19;;;;;;;21.20;15.90;;;;;;;15.68;100.00;99302.54;655920;1277;140709;-82
2022/09/13 23:03:22;;;;;;;27.10;17.70;;;;;;;15.63;100.00;99302.13;655183;1278;139675;-82
2022/09/13 23:18:25;;;;;;;22.60;15.80;;;;;;;15.55;100.00;99300.98;655822;1278;139512;-82
2022/09/13 23:33:28;;;;;;;24.00;16.30;;;;;;;15.42;100.00;99289.21;656140;1277;139628;-82
2022/09/13 23:48:33;;;;;;;25.60;17.20;;;;;;;15.18;100.00;99275.75;655744;1277;139518;-84
